sensor_id;sensor_type;location;lat;lon;timestamp;temperature;humidity
8595;DHT22;4335;48.860;9.198;2024-03-08T00:00:56;3.90;99.90
8595;DHT22;4335;48.860;9.198;2024-03-08T00:03:23;3.90;99.90
8595;DHT22;4335;48.860;9.198;2024-03-08T00:05:49;3.90;99.90
8595;DHT22;4335;48.860;9.198;2024-03-08T00:08:23;3.90;99.90
8595;DHT22;4335;48.860;9.198;2024-03-08T00:10:51;3.90;99.90
8595;DHT22;4335;48.860;9.198;2024-03-08T00:13:35;3.90;99.90
8595;DHT22;4335;48.860;9.198;2024-03-08T00:16:05;3.90;99.90
8595;DHT22;4335;48.860;9.198;2024-03-08T00:18:35;3.90;99.90
8595;DHT22;4335;48.860;9.198;2024-03-08T00:21:02;3.80;99.90
8595;DHT22;4335;48.860;9.198;2024-03-08T00:23:32;3.70;99.90
8595;DHT22;4335;48.860;9.198;2024-03-08T00:25:59;3.70;99.90
8595;DHT22;4335;48.860;9.198;2024-03-08T00:31:25;3.60;99.90
8595;DHT22;4335;48.860;9.198;2024-03-08T00:33:53;3.70;99.90
8595;DHT22;4335;48.860;9.198;2024-03-08T00:36:20;3.70;99.90
8595;DHT22;4335;48.860;9.198;2024-03-08T00:38:47;3.70;99.90
8595;DHT22;4335;48.860;9.198;2024-03-08T00:41:26;3.70;99.90
8595;DHT22;4335;48.860;9.198;2024-03-08T00:43:59;3.60;99.90
8595;DHT22;4335;48.860;9.198;2024-03-08T00:46:26;3.50;99.90
8595;DHT22;4335;48.860;9.198;2024-03-08T00:48:56;3.60;99.90
8595;DHT22;4335;48.860;9.198;2024-03-08T00:51:26;3.60;99.90
8595;DHT22;4335;48.860;9.198;2024-03-08T00:53:56;3.60;99.90
8595;DHT22;4335;48.860;9.198;2024-03-08T00:56:29;3.50;99.90
8595;DHT22;4335;48.860;9.198;2024-03-08T00:58:56;3.50;99.90
8595;DHT22;4335;48.860;9.198;2024-03-08T01:01:22;3.50;99.90
8595;DHT22;4335;48.860;9.198;2024-03-08T01:03:50;3.40;99.90
8595;DHT22;4335;48.860;9.198;2024-03-08T01:06:17;3.40;99.90
8595;DHT22;4335;48.860;9.198;2024-03-08T01:08:44;3.30;99.90
8595;DHT22;4335;48.860;9.198;2024-03-08T01:11:13;3.30;99.90
8595;DHT22;4335;48.860;9.198;2024-03-08T01:13:40;3.30;99.90
8595;DHT22;4335;48.860;9.198;2024-03-08T01:16:07;3.30;99.90
8595;DHT22;4335;48.860;9.198;2024-03-08T01:18:34;3.30;99.90
8595;DHT22;4335;48.860;9.198;2024-03-08T01:21:04;3.20;99.90
8595;DHT22;4335;48.860;9.198;2024-03-08T01:23:30;3.20;99.90
8595;DHT22;4335;48.860;9.198;2024-03-08T01:25:57;3.20;99.90
8595;DHT22;4335;48.860;9.198;2024-03-08T01:28:27;3.20;99.90
8595;DHT22;4335;48.860;9.198;2024-03-08T01:30:56;3.10;99.90
8595;DHT22;4335;48.860;9.198;2024-03-08T01:33:24;3.10;99.90
8595;DHT22;4335;48.860;9.198;2024-03-08T01:35:54;3.10;99.90
8595;DHT22;4335;48.860;9.198;2024-03-08T01:38:22;3.00;99.90
8595;DHT22;4335;48.860;9.198;2024-03-08T01:40:51;3.00;99.90
8595;DHT22;4335;48.860;9.198;2024-03-08T01:43:19;3.00;99.90
8595;DHT22;4335;48.860;9.198;2024-03-08T01:45:47;3.00;99.90
8595;DHT22;4335;48.860;9.198;2024-03-08T01:48:15;3.00;99.90
8595;DHT22;4335;48.860;9.198;2024-03-08T01:50:43;3.00;99.90
8595;DHT22;4335;48.860;9.198;2024-03-08T01:53:11;3.00;99.90
8595;DHT22;4335;48.860;9.198;2024-03-08T01:55:41;3.00;99.90
8595;DHT22;4335;48.860;9.198;2024-03-08T01:58:11;2.90;99.90
8595;DHT22;4335;48.860;9.198;2024-03-08T02:00:42;2.90;99.90
8595;DHT22;4335;48.860;9.198;2024-03-08T02:03:14;2.90;99.90
8595;DHT22;4335;48.860;9.198;2024-03-08T02:05:41;2.90;99.90
8595;DHT22;4335;48.860;9.198;2024-03-08T02:08:09;2.90;99.90
8595;DHT22;4335;48.860;9.198;2024-03-08T02:10:41;2.90;99.90
8595;DHT22;4335;48.860;9.198;2024-03-08T02:13:08;2.90;99.90
8595;DHT22;4335;48.860;9.198;2024-03-08T02:15:53;2.80;99.90
8595;DHT22;4335;48.860;9.198;2024-03-08T02:18:22;2.80;99.90
8595;DHT22;4335;48.860;9.198;2024-03-08T02:20:51;2.80;99.90
8595;DHT22;4335;48.860;9.198;2024-03-08T02:23:21;2.80;99.90
8595;DHT22;4335;48.860;9.198;2024-03-08T02:25:48;2.90;99.90
8595;DHT22;4335;48.860;9.198;2024-03-08T02:28:15;2.80;99.90
8595;DHT22;4335;48.860;9.198;2024-03-08T02:30:42;2.80;99.90
8595;DHT22;4335;48.860;9.198;2024-03-08T02:33:13;2.80;99.90
8595;DHT22;4335;48.860;9.198;2024-03-08T02:35:42;2.70;99.90
8595;DHT22;4335;48.860;9.198;2024-03-08T02:38:16;2.70;99.90
8595;DHT22;4335;48.860;9.198;2024-03-08T02:40:46;2.70;99.90
8595;DHT22;4335;48.860;9.198;2024-03-08T02:43:15;2.70;99.90
8595;DHT22;4335;48.860;9.198;2024-03-08T02:45:42;2.70;99.90
8595;DHT22;4335;48.860;9.198;2024-03-08T02:48:09;2.70;99.90
8595;DHT22;4335;48.860;9.198;2024-03-08T02:50:43;2.70;99.90
8595;DHT22;4335;48.860;9.198;2024-03-08T02:53:10;2.60;99.90
8595;DHT22;4335;48.860;9.198;2024-03-08T02:55:44;2.60;99.90
8595;DHT22;4335;48.860;9.198;2024-03-08T02:58:14;2.60;99.90
8595;DHT22;4335;48.860;9.198;2024-03-08T03:00:46;2.60;99.90
8595;DHT22;4335;48.860;9.198;2024-03-08T03:03:13;2.60;99.90
8595;DHT22;4335;48.860;9.198;2024-03-08T03:05:40;2.60;99.90
8595;DHT22;4335;48.860;9.198;2024-03-08T03:08:19;2.50;99.90
8595;DHT22;4335;48.860;9.198;2024-03-08T03:10:47;2.50;99.90
8595;DHT22;4335;48.860;9.198;2024-03-08T03:13:13;2.50;99.90
8595;DHT22;4335;48.860;9.198;2024-03-08T03:15:43;2.50;99.90
8595;DHT22;4335;48.860;9.198;2024-03-08T03:18:10;2.40;99.90
8595;DHT22;4335;48.860;9.198;2024-03-08T03:20:40;2.50;99.90
8595;DHT22;4335;48.860;9.198;2024-03-08T03:23:11;2.50;99.90
8595;DHT22;4335;48.860;9.198;2024-03-08T03:25:40;2.50;99.90
8595;DHT22;4335;48.860;9.198;2024-03-08T03:28:08;2.40;99.90
8595;DHT22;4335;48.860;9.198;2024-03-08T03:30:39;2.50;99.90
8595;DHT22;4335;48.860;9.198;2024-03-08T03:33:09;2.40;99.90
8595;DHT22;4335;48.860;9.198;2024-03-08T03:35:38;2.50;99.90
8595;DHT22;4335;48.860;9.198;2024-03-08T03:38:14;2.50;99.90
8595;DHT22;4335;48.860;9.198;2024-03-08T03:40:43;2.60;99.90
8595;DHT22;4335;48.860;9.198;2024-03-08T03:43:18;2.50;99.90
8595;DHT22;4335;48.860;9.198;2024-03-08T03:45:51;2.30;99.90
8595;DHT22;4335;48.860;9.198;2024-03-08T03:48:20;2.40;99.90
8595;DHT22;4335;48.860;9.198;2024-03-08T03:50:48;2.40;99.90
8595;DHT22;4335;48.860;9.198;2024-03-08T03:53:16;2.40;99.90
8595;DHT22;4335;48.860;9.198;2024-03-08T03:55:42;2.40;99.90
8595;DHT22;4335;48.860;9.198;2024-03-08T03:58:12;2.40;99.90
8595;DHT22;4335;48.860;9.198;2024-03-08T04:00:39;2.30;99.90
8595;DHT22;4335;48.860;9.198;2024-03-08T04:03:07;2.30;99.90
8595;DHT22;4335;48.860;9.198;2024-03-08T04:05:34;2.30;99.90
8595;DHT22;4335;48.860;9.198;2024-03-08T04:08:04;2.30;99.90
8595;DHT22;4335;48.860;9.198;2024-03-08T04:10:33;2.40;99.90
8595;DHT22;4335;48.860;9.198;2024-03-08T04:13:00;2.30;99.90
8595;DHT22;4335;48.860;9.198;2024-03-08T04:15:33;2.30;99.90
8595;DHT22;4335;48.860;9.198;2024-03-08T04:18:00;2.30;99.90
8595;DHT22;4335;48.860;9.198;2024-03-08T04:20:30;2.30;99.90
8595;DHT22;4335;48.860;9.198;2024-03-08T04:22:57;2.30;99.90
8595;DHT22;4335;48.860;9.198;2024-03-08T04:25:29;2.20;99.90
8595;DHT22;4335;48.860;9.198;2024-03-08T04:27:59;2.20;99.90
8595;DHT22;4335;48.860;9.198;2024-03-08T04:30:29;2.20;99.90
8595;DHT22;4335;48.860;9.198;2024-03-08T04:32:59;2.20;99.90
8595;DHT22;4335;48.860;9.198;2024-03-08T04:35:29;2.20;99.90
8595;DHT22;4335;48.860;9.198;2024-03-08T04:37:59;2.20;99.90
8595;DHT22;4335;48.860;9.198;2024-03-08T04:40:25;2.20;99.90
8595;DHT22;4335;48.860;9.198;2024-03-08T04:42:52;2.20;99.90
8595;DHT22;4335;48.860;9.198;2024-03-08T04:45:19;2.20;99.90
8595;DHT22;4335;48.860;9.198;2024-03-08T04:47:55;2.20;99.90
8595;DHT22;4335;48.860;9.198;2024-03-08T04:50:32;2.10;99.90
8595;DHT22;4335;48.860;9.198;2024-03-08T04:53:00;2.10;99.90
8595;DHT22;4335;48.860;9.198;2024-03-08T04:55:26;2.10;99.90
8595;DHT22;4335;48.860;9.198;2024-03-08T04:57:53;2.00;99.90
8595;DHT22;4335;48.860;9.198;2024-03-08T05:00:20;2.10;99.90
8595;DHT22;4335;48.860;9.198;2024-03-08T05:02:46;2.10;99.90
8595;DHT22;4335;48.860;9.198;2024-03-08T05:05:13;2.00;99.90
8595;DHT22;4335;48.860;9.198;2024-03-08T05:07:44;2.00;99.90
8595;DHT22;4335;48.860;9.198;2024-03-08T05:10:11;2.00;99.90
8595;DHT22;4335;48.860;9.198;2024-03-08T05:12:51;1.90;99.90
8595;DHT22;4335;48.860;9.198;2024-03-08T05:15:24;1.90;99.90
8595;DHT22;4335;48.860;9.198;2024-03-08T05:17:54;1.90;99.90
8595;DHT22;4335;48.860;9.198;2024-03-08T05:20:22;1.90;99.90
8595;DHT22;4335;48.860;9.198;2024-03-08T05:22:50;1.90;99.90
8595;DHT22;4335;48.860;9.198;2024-03-08T05:25:20;1.90;99.90
8595;DHT22;4335;48.860;9.198;2024-03-08T05:27:51;1.90;99.90
8595;DHT22;4335;48.860;9.198;2024-03-08T05:30:21;1.90;99.90
8595;DHT22;4335;48.860;9.198;2024-03-08T05:32:51;1.90;99.90
8595;DHT22;4335;48.860;9.198;2024-03-08T05:35:24;1.90;99.90
8595;DHT22;4335;48.860;9.198;2024-03-08T05:37:51;1.90;99.90
8595;DHT22;4335;48.860;9.198;2024-03-08T05:40:21;1.90;99.90
8595;DHT22;4335;48.860;9.198;2024-03-08T05:42:48;1.90;99.90
8595;DHT22;4335;48.860;9.198;2024-03-08T05:45:14;1.90;99.90
8595;DHT22;4335;48.860;9.198;2024-03-08T05:47:50;1.90;99.90
8595;DHT22;4335;48.860;9.198;2024-03-08T05:50:18;1.90;99.90
8595;DHT22;4335;48.860;9.198;2024-03-08T05:52:52;2.00;99.90
8595;DHT22;4335;48.860;9.198;2024-03-08T05:55:39;2.00;99.90
8595;DHT22;4335;48.860;9.198;2024-03-08T05:58:09;2.00;99.90
8595;DHT22;4335;48.860;9.198;2024-03-08T06:00:49;2.00;99.90
8595;DHT22;4335;48.860;9.198;2024-03-08T06:03:24;2.00;99.90
8595;DHT22;4335;48.860;9.198;2024-03-08T06:05:52;2.00;99.90
8595;DHT22;4335;48.860;9.198;2024-03-08T06:08:20;2.10;99.90
8595;DHT22;4335;48.860;9.198;2024-03-08T06:11:01;2.10;99.90
8595;DHT22;4335;48.860;9.198;2024-03-08T06:13:31;2.10;99.90
8595;DHT22;4335;48.860;9.198;2024-03-08T06:15:59;2.20;99.90
8595;DHT22;4335;48.860;9.198;2024-03-08T06:18:33;2.30;99.90
8595;DHT22;4335;48.860;9.198;2024-03-08T06:21:03;2.40;99.90
8595;DHT22;4335;48.860;9.198;2024-03-08T06:23:38;2.30;99.90
8595;DHT22;4335;48.860;9.198;2024-03-08T06:26:05;2.40;99.90
8595;DHT22;4335;48.860;9.198;2024-03-08T06:28:35;2.40;99.90
8595;DHT22;4335;48.860;9.198;2024-03-08T06:31:04;2.40;99.90
8595;DHT22;4335;48.860;9.198;2024-03-08T06:33:42;2.40;99.90
8595;DHT22;4335;48.860;9.198;2024-03-08T06:36:11;2.40;99.90
8595;DHT22;4335;48.860;9.198;2024-03-08T06:38:42;2.40;99.90
8595;DHT22;4335;48.860;9.198;2024-03-08T06:41:12;2.40;99.90
8595;DHT22;4335;48.860;9.198;2024-03-08T06:43:43;2.40;99.90
8595;DHT22;4335;48.860;9.198;2024-03-08T06:46:15;2.50;99.90
8595;DHT22;4335;48.860;9.198;2024-03-08T06:48:42;2.50;99.90
8595;DHT22;4335;48.860;9.198;2024-03-08T06:51:11;2.60;99.90
8595;DHT22;4335;48.860;9.198;2024-03-08T06:53:47;2.60;99.90
8595;DHT22;4335;48.860;9.198;2024-03-08T06:56:18;2.60;99.90
8595;DHT22;4335;48.860;9.198;2024-03-08T06:58:46;2.70;99.90
8595;DHT22;4335;48.860;9.198;2024-03-08T07:01:17;2.70;99.90
8595;DHT22;4335;48.860;9.198;2024-03-08T07:03:48;2.80;99.90
8595;DHT22;4335;48.860;9.198;2024-03-08T07:06:21;2.80;99.90
8595;DHT22;4335;48.860;9.198;2024-03-08T07:08:51;2.80;99.90
8595;DHT22;4335;48.860;9.198;2024-03-08T07:11:18;2.90;99.90
8595;DHT22;4335;48.860;9.198;2024-03-08T07:13:54;3.00;99.90
8595;DHT22;4335;48.860;9.198;2024-03-08T07:16:29;3.00;99.90
8595;DHT22;4335;48.860;9.198;2024-03-08T07:18:56;3.00;99.90
8595;DHT22;4335;48.860;9.198;2024-03-08T07:21:27;3.10;99.90
8595;DHT22;4335;48.860;9.198;2024-03-08T07:23:55;3.10;99.90
8595;DHT22;4335;48.860;9.198;2024-03-08T07:26:44;3.10;99.90
8595;DHT22;4335;48.860;9.198;2024-03-08T07:29:15;3.20;99.90
8595;DHT22;4335;48.860;9.198;2024-03-08T07:31:44;3.20;99.90
8595;DHT22;4335;48.860;9.198;2024-03-08T07:37:19;3.30;99.90
8595;DHT22;4335;48.860;9.198;2024-03-08T07:39:47;3.50;99.90
8595;DHT22;4335;48.860;9.198;2024-03-08T07:42:14;3.60;99.90
8595;DHT22;4335;48.860;9.198;2024-03-08T07:44:48;3.80;99.90
8595;DHT22;4335;48.860;9.198;2024-03-08T07:47:22;4.00;99.90
8595;DHT22;4335;48.860;9.198;2024-03-08T07:49:54;4.00;99.90
8595;DHT22;4335;48.860;9.198;2024-03-08T07:52:24;4.10;99.90
8595;DHT22;4335;48.860;9.198;2024-03-08T07:54:52;4.10;99.90
8595;DHT22;4335;48.860;9.198;2024-03-08T07:57:26;4.10;99.90
8595;DHT22;4335;48.860;9.198;2024-03-08T07:59:56;4.00;99.90
8595;DHT22;4335;48.860;9.198;2024-03-08T08:02:37;4.20;99.90
8595;DHT22;4335;48.860;9.198;2024-03-08T08:05:04;4.30;99.90
8595;DHT22;4335;48.860;9.198;2024-03-08T08:07:39;4.20;99.90
8595;DHT22;4335;48.860;9.198;2024-03-08T08:10:10;4.10;99.90
8595;DHT22;4335;48.860;9.198;2024-03-08T08:12:45;4.20;99.90
8595;DHT22;4335;48.860;9.198;2024-03-08T08:15:18;4.20;99.90
8595;DHT22;4335;48.860;9.198;2024-03-08T08:17:51;4.20;99.90
8595;DHT22;4335;48.860;9.198;2024-03-08T08:20:21;4.20;99.90
8595;DHT22;4335;48.860;9.198;2024-03-08T08:22:49;4.20;99.90
8595;DHT22;4335;48.860;9.198;2024-03-08T08:25:23;4.20;99.90
8595;DHT22;4335;48.860;9.198;2024-03-08T08:27:50;4.20;99.90
8595;DHT22;4335;48.860;9.198;2024-03-08T08:30:18;4.20;99.90
8595;DHT22;4335;48.860;9.198;2024-03-08T08:32:51;4.10;99.90
8595;DHT22;4335;48.860;9.198;2024-03-08T08:35:18;4.40;99.90
8595;DHT22;4335;48.860;9.198;2024-03-08T08:37:48;4.40;99.90
8595;DHT22;4335;48.860;9.198;2024-03-08T08:40:16;4.40;99.90
8595;DHT22;4335;48.860;9.198;2024-03-08T08:42:43;4.40;99.90
8595;DHT22;4335;48.860;9.198;2024-03-08T08:45:12;4.40;99.90
8595;DHT22;4335;48.860;9.198;2024-03-08T08:47:39;4.30;99.90
8595;DHT22;4335;48.860;9.198;2024-03-08T08:50:09;4.30;99.90
8595;DHT22;4335;48.860;9.198;2024-03-08T08:52:40;4.30;99.90
8595;DHT22;4335;48.860;9.198;2024-03-08T08:55:11;4.20;99.90
8595;DHT22;4335;48.860;9.198;2024-03-08T08:57:41;4.30;99.90
8595;DHT22;4335;48.860;9.198;2024-03-08T09:00:08;4.30;99.90
8595;DHT22;4335;48.860;9.198;2024-03-08T09:02:40;4.40;99.90
8595;DHT22;4335;48.860;9.198;2024-03-08T09:05:13;4.40;99.90
8595;DHT22;4335;48.860;9.198;2024-03-08T09:07:45;4.30;99.90
8595;DHT22;4335;48.860;9.198;2024-03-08T09:10:14;4.40;99.90
8595;DHT22;4335;48.860;9.198;2024-03-08T09:12:45;4.30;99.90
8595;DHT22;4335;48.860;9.198;2024-03-08T09:15:11;4.40;99.90
8595;DHT22;4335;48.860;9.198;2024-03-08T09:17:40;4.40;99.90
8595;DHT22;4335;48.860;9.198;2024-03-08T09:20:10;4.50;99.90
8595;DHT22;4335;48.860;9.198;2024-03-08T09:22:46;4.50;99.90
8595;DHT22;4335;48.860;9.198;2024-03-08T09:25:13;4.60;99.90
8595;DHT22;4335;48.860;9.198;2024-03-08T09:27:43;4.60;99.90
8595;DHT22;4335;48.860;9.198;2024-03-08T09:30:12;4.60;99.90
8595;DHT22;4335;48.860;9.198;2024-03-08T09:32:39;4.60;99.90
8595;DHT22;4335;48.860;9.198;2024-03-08T09:35:07;4.60;99.90
8595;DHT22;4335;48.860;9.198;2024-03-08T09:37:42;4.80;99.90
8595;DHT22;4335;48.860;9.198;2024-03-08T09:40:09;4.90;99.90
8595;DHT22;4335;48.860;9.198;2024-03-08T09:42:41;4.90;99.90
8595;DHT22;4335;48.860;9.198;2024-03-08T09:45:10;4.90;99.90
8595;DHT22;4335;48.860;9.198;2024-03-08T09:47:41;5.00;99.90
8595;DHT22;4335;48.860;9.198;2024-03-08T09:50:08;5.00;99.90
8595;DHT22;4335;48.860;9.198;2024-03-08T09:52:38;4.90;99.90
8595;DHT22;4335;48.860;9.198;2024-03-08T09:55:11;4.90;99.90
8595;DHT22;4335;48.860;9.198;2024-03-08T09:57:43;4.90;99.90
8595;DHT22;4335;48.860;9.198;2024-03-08T10:00:32;4.90;99.90
8595;DHT22;4335;48.860;9.198;2024-03-08T10:03:01;4.90;99.90
8595;DHT22;4335;48.860;9.198;2024-03-08T10:05:28;4.90;99.90
8595;DHT22;4335;48.860;9.198;2024-03-08T10:08:05;4.90;99.90
8595;DHT22;4335;48.860;9.198;2024-03-08T10:10:34;4.90;99.90
8595;DHT22;4335;48.860;9.198;2024-03-08T10:13:03;4.90;99.90
8595;DHT22;4335;48.860;9.198;2024-03-08T10:15:35;4.90;99.90
8595;DHT22;4335;48.860;9.198;2024-03-08T10:18:02;4.90;99.90
8595;DHT22;4335;48.860;9.198;2024-03-08T10:20:32;5.00;99.90
8595;DHT22;4335;48.860;9.198;2024-03-08T10:22:59;5.00;99.90
8595;DHT22;4335;48.860;9.198;2024-03-08T10:25:26;5.00;99.90
8595;DHT22;4335;48.860;9.198;2024-03-08T10:27:53;5.10;99.90
8595;DHT22;4335;48.860;9.198;2024-03-08T10:30:20;5.00;99.90
8595;DHT22;4335;48.860;9.198;2024-03-08T10:32:48;5.10;99.90
8595;DHT22;4335;48.860;9.198;2024-03-08T10:35:15;5.20;99.90
8595;DHT22;4335;48.860;9.198;2024-03-08T10:37:45;5.30;99.90
8595;DHT22;4335;48.860;9.198;2024-03-08T10:40:17;5.50;99.90
8595;DHT22;4335;48.860;9.198;2024-03-08T10:42:52;5.70;99.90
8595;DHT22;4335;48.860;9.198;2024-03-08T10:45:34;5.80;99.90
8595;DHT22;4335;48.860;9.198;2024-03-08T10:48:12;5.80;99.90
8595;DHT22;4335;48.860;9.198;2024-03-08T10:50:49;6.00;99.90
8595;DHT22;4335;48.860;9.198;2024-03-08T10:53:19;6.10;99.90
8595;DHT22;4335;48.860;9.198;2024-03-08T10:55:47;6.20;99.90
8595;DHT22;4335;48.860;9.198;2024-03-08T10:58:14;6.20;99.90
8595;DHT22;4335;48.860;9.198;2024-03-08T11:00:44;6.30;99.90
8595;DHT22;4335;48.860;9.198;2024-03-08T11:06:16;6.40;99.90
8595;DHT22;4335;48.860;9.198;2024-03-08T11:08:46;6.50;99.90
8595;DHT22;4335;48.860;9.198;2024-03-08T11:11:26;6.50;99.90
8595;DHT22;4335;48.860;9.198;2024-03-08T11:13:53;6.60;99.90
8595;DHT22;4335;48.860;9.198;2024-03-08T11:16:39;6.80;99.90
8595;DHT22;4335;48.860;9.198;2024-03-08T11:19:25;6.90;99.90
8595;DHT22;4335;48.860;9.198;2024-03-08T11:22:04;7.00;99.90
8595;DHT22;4335;48.860;9.198;2024-03-08T11:24:39;7.00;99.90
8595;DHT22;4335;48.860;9.198;2024-03-08T11:27:13;7.00;99.90
8595;DHT22;4335;48.860;9.198;2024-03-08T11:29:39;6.90;99.90
8595;DHT22;4335;48.860;9.198;2024-03-08T11:32:14;6.80;99.90
8595;DHT22;4335;48.860;9.198;2024-03-08T11:34:48;6.70;99.90
8595;DHT22;4335;48.860;9.198;2024-03-08T11:37:28;6.50;99.90
8595;DHT22;4335;48.860;9.198;2024-03-08T11:39:56;6.50;99.90
8595;DHT22;4335;48.860;9.198;2024-03-08T11:42:27;6.50;99.90
8595;DHT22;4335;48.860;9.198;2024-03-08T11:44:57;6.60;99.90
8595;DHT22;4335;48.860;9.198;2024-03-08T11:47:23;6.70;99.90
8595;DHT22;4335;48.860;9.198;2024-03-08T11:49:52;6.70;99.90
8595;DHT22;4335;48.860;9.198;2024-03-08T11:52:19;6.60;99.90
8595;DHT22;4335;48.860;9.198;2024-03-08T11:54:53;6.50;99.90
8595;DHT22;4335;48.860;9.198;2024-03-08T11:57:23;6.60;99.90
8595;DHT22;4335;48.860;9.198;2024-03-08T11:59:58;6.60;99.90
8595;DHT22;4335;48.860;9.198;2024-03-08T12:02:38;6.60;99.90
8595;DHT22;4335;48.860;9.198;2024-03-08T12:05:10;6.60;99.90
8595;DHT22;4335;48.860;9.198;2024-03-08T12:07:42;6.60;99.90
8595;DHT22;4335;48.860;9.198;2024-03-08T12:10:17;6.60;99.90
8595;DHT22;4335;48.860;9.198;2024-03-08T12:12:44;6.60;99.90
8595;DHT22;4335;48.860;9.198;2024-03-08T12:15:12;6.60;99.90
8595;DHT22;4335;48.860;9.198;2024-03-08T12:17:42;6.70;99.90
8595;DHT22;4335;48.860;9.198;2024-03-08T12:20:19;6.80;99.90
8595;DHT22;4335;48.860;9.198;2024-03-08T12:22:48;6.90;99.90
8595;DHT22;4335;48.860;9.198;2024-03-08T12:25:21;6.90;99.90
8595;DHT22;4335;48.860;9.198;2024-03-08T12:27:51;7.00;99.90
8595;DHT22;4335;48.860;9.198;2024-03-08T12:30:20;7.00;99.90
8595;DHT22;4335;48.860;9.198;2024-03-08T12:32:54;7.10;99.90
8595;DHT22;4335;48.860;9.198;2024-03-08T12:35:26;7.10;99.90
8595;DHT22;4335;48.860;9.198;2024-03-08T12:37:54;7.10;99.90
8595;DHT22;4335;48.860;9.198;2024-03-08T12:40:29;7.10;99.90
8595;DHT22;4335;48.860;9.198;2024-03-08T12:43:00;7.20;99.90
8595;DHT22;4335;48.860;9.198;2024-03-08T12:45:30;7.30;99.90
8595;DHT22;4335;48.860;9.198;2024-03-08T12:48:02;7.30;99.90
8595;DHT22;4335;48.860;9.198;2024-03-08T12:50:32;7.30;99.90
8595;DHT22;4335;48.860;9.198;2024-03-08T12:53:05;7.40;99.90
8595;DHT22;4335;48.860;9.198;2024-03-08T12:55:33;7.50;99.90
8595;DHT22;4335;48.860;9.198;2024-03-08T12:58:01;7.50;99.90
8595;DHT22;4335;48.860;9.198;2024-03-08T13:00:29;7.50;99.90
8595;DHT22;4335;48.860;9.198;2024-03-08T13:02:59;7.50;99.90
8595;DHT22;4335;48.860;9.198;2024-03-08T13:05:25;7.40;99.90
8595;DHT22;4335;48.860;9.198;2024-03-08T13:07:53;7.50;99.90
8595;DHT22;4335;48.860;9.198;2024-03-08T13:10:26;7.50;99.90
8595;DHT22;4335;48.860;9.198;2024-03-08T13:12:53;7.70;99.90
8595;DHT22;4335;48.860;9.198;2024-03-08T13:15:26;7.80;99.90
8595;DHT22;4335;48.860;9.198;2024-03-08T13:17:57;7.80;99.90
8595;DHT22;4335;48.860;9.198;2024-03-08T13:20:29;7.90;99.90
8595;DHT22;4335;48.860;9.198;2024-03-08T13:22:55;7.90;99.90
8595;DHT22;4335;48.860;9.198;2024-03-08T13:25:25;7.90;99.90
8595;DHT22;4335;48.860;9.198;2024-03-08T13:28:03;8.10;99.90
8595;DHT22;4335;48.860;9.198;2024-03-08T13:30:37;8.00;99.90
8595;DHT22;4335;48.860;9.198;2024-03-08T13:33:04;8.10;99.90
8595;DHT22;4335;48.860;9.198;2024-03-08T13:35:33;8.10;99.90
8595;DHT22;4335;48.860;9.198;2024-03-08T13:38:00;8.10;99.90
8595;DHT22;4335;48.860;9.198;2024-03-08T13:40:29;8.20;99.90
8595;DHT22;4335;48.860;9.198;2024-03-08T13:42:56;8.20;99.90
8595;DHT22;4335;48.860;9.198;2024-03-08T13:45:25;8.20;99.90
8595;DHT22;4335;48.860;9.198;2024-03-08T13:47:53;8.20;99.90
8595;DHT22;4335;48.860;9.198;2024-03-08T13:50:20;8.20;99.90
8595;DHT22;4335;48.860;9.198;2024-03-08T13:52:47;8.30;99.90
8595;DHT22;4335;48.860;9.198;2024-03-08T13:55:17;8.30;99.90
8595;DHT22;4335;48.860;9.198;2024-03-08T13:57:44;8.30;99.90
8595;DHT22;4335;48.860;9.198;2024-03-08T14:00:12;8.30;99.90
8595;DHT22;4335;48.860;9.198;2024-03-08T14:02:40;8.40;99.90
8595;DHT22;4335;48.860;9.198;2024-03-08T14:05:10;8.50;99.90
8595;DHT22;4335;48.860;9.198;2024-03-08T14:07:38;8.60;99.90
8595;DHT22;4335;48.860;9.198;2024-03-08T14:10:05;8.60;99.90
8595;DHT22;4335;48.860;9.198;2024-03-08T14:12:36;8.60;99.90
8595;DHT22;4335;48.860;9.198;2024-03-08T14:15:07;8.60;99.90
8595;DHT22;4335;48.860;9.198;2024-03-08T14:17:34;8.80;99.90
8595;DHT22;4335;48.860;9.198;2024-03-08T14:20:02;8.80;99.90
8595;DHT22;4335;48.860;9.198;2024-03-08T14:22:29;8.80;99.90
8595;DHT22;4335;48.860;9.198;2024-03-08T14:25:00;8.80;99.90
8595;DHT22;4335;48.860;9.198;2024-03-08T14:27:29;8.80;99.90
8595;DHT22;4335;48.860;9.198;2024-03-08T14:29:59;8.90;99.90
8595;DHT22;4335;48.860;9.198;2024-03-08T14:32:26;8.80;99.90
8595;DHT22;4335;48.860;9.198;2024-03-08T14:34:54;9.00;99.90
8595;DHT22;4335;48.860;9.198;2024-03-08T14:37:22;8.90;99.90
8595;DHT22;4335;48.860;9.198;2024-03-08T14:39:53;9.00;99.90
8595;DHT22;4335;48.860;9.198;2024-03-08T14:42:23;9.20;99.90
8595;DHT22;4335;48.860;9.198;2024-03-08T14:44:50;9.10;99.90
8595;DHT22;4335;48.860;9.198;2024-03-08T14:47:21;9.20;99.90
8595;DHT22;4335;48.860;9.198;2024-03-08T14:49:51;9.20;99.90
8595;DHT22;4335;48.860;9.198;2024-03-08T14:52:18;9.20;99.90
8595;DHT22;4335;48.860;9.198;2024-03-08T14:54:54;9.30;99.90
8595;DHT22;4335;48.860;9.198;2024-03-08T14:57:24;9.40;99.90
8595;DHT22;4335;48.860;9.198;2024-03-08T14:59:51;9.40;99.90
8595;DHT22;4335;48.860;9.198;2024-03-08T15:02:21;9.40;99.90
8595;DHT22;4335;48.860;9.198;2024-03-08T15:04:51;9.50;99.90
8595;DHT22;4335;48.860;9.198;2024-03-08T15:07:26;9.50;99.90
8595;DHT22;4335;48.860;9.198;2024-03-08T15:09:52;9.50;99.90
8595;DHT22;4335;48.860;9.198;2024-03-08T15:12:22;9.50;99.90
8595;DHT22;4335;48.860;9.198;2024-03-08T15:14:54;9.50;99.90
8595;DHT22;4335;48.860;9.198;2024-03-08T15:17:23;9.50;99.90
8595;DHT22;4335;48.860;9.198;2024-03-08T15:19:50;9.60;99.90
8595;DHT22;4335;48.860;9.198;2024-03-08T15:22:19;9.70;99.90
8595;DHT22;4335;48.860;9.198;2024-03-08T15:24:49;9.70;99.90
8595;DHT22;4335;48.860;9.198;2024-03-08T15:27:17;9.60;99.90
8595;DHT22;4335;48.860;9.198;2024-03-08T15:29:45;9.50;99.90
8595;DHT22;4335;48.860;9.198;2024-03-08T15:32:14;9.50;99.90
8595;DHT22;4335;48.860;9.198;2024-03-08T15:34:48;9.50;99.90
8595;DHT22;4335;48.860;9.198;2024-03-08T15:37:16;9.50;99.90
8595;DHT22;4335;48.860;9.198;2024-03-08T15:39:43;9.60;99.90
8595;DHT22;4335;48.860;9.198;2024-03-08T15:42:09;9.70;99.90
8595;DHT22;4335;48.860;9.198;2024-03-08T15:44:40;9.80;99.90
8595;DHT22;4335;48.860;9.198;2024-03-08T15:47:34;9.70;99.90
8595;DHT22;4335;48.860;9.198;2024-03-08T15:50:06;9.80;99.90
8595;DHT22;4335;48.860;9.198;2024-03-08T15:52:37;9.90;99.90
8595;DHT22;4335;48.860;9.198;2024-03-08T15:55:06;9.80;99.90
8595;DHT22;4335;48.860;9.198;2024-03-08T15:57:38;9.80;99.90
8595;DHT22;4335;48.860;9.198;2024-03-08T16:00:09;9.90;99.90
8595;DHT22;4335;48.860;9.198;2024-03-08T16:02:59;9.80;99.90
8595;DHT22;4335;48.860;9.198;2024-03-08T16:05:28;9.80;99.90
8595;DHT22;4335;48.860;9.198;2024-03-08T16:07:58;9.80;99.90
8595;DHT22;4335;48.860;9.198;2024-03-08T16:10:25;9.70;99.90
8595;DHT22;4335;48.860;9.198;2024-03-08T16:12:54;9.70;99.90
8595;DHT22;4335;48.860;9.198;2024-03-08T16:15:21;9.60;99.90
8595;DHT22;4335;48.860;9.198;2024-03-08T16:17:53;9.70;99.90
8595;DHT22;4335;48.860;9.198;2024-03-08T16:20:21;9.60;99.90
8595;DHT22;4335;48.860;9.198;2024-03-08T16:22:48;9.60;99.90
8595;DHT22;4335;48.860;9.198;2024-03-08T16:25:20;9.60;99.90
8595;DHT22;4335;48.860;9.198;2024-03-08T16:27:48;9.70;99.90
8595;DHT22;4335;48.860;9.198;2024-03-08T16:30:16;9.60;99.90
8595;DHT22;4335;48.860;9.198;2024-03-08T16:32:43;9.70;99.90
8595;DHT22;4335;48.860;9.198;2024-03-08T16:35:13;9.60;99.90
8595;DHT22;4335;48.860;9.198;2024-03-08T16:37:52;9.60;99.90
8595;DHT22;4335;48.860;9.198;2024-03-08T16:40:18;9.60;99.90
8595;DHT22;4335;48.860;9.198;2024-03-08T16:42:52;9.60;99.90
8595;DHT22;4335;48.860;9.198;2024-03-08T16:45:31;9.60;99.90